createdAt,value
2019-05-06T00:00:00.464Z,44.20
2019-05-06T00:02:28.339Z,44.20
2019-05-06T00:04:54.730Z,44.20
2019-05-06T00:07:20.995Z,44.20
2019-05-06T00:09:47.411Z,44.30
2019-05-06T00:12:14.972Z,44.30
2019-05-06T00:14:43.175Z,44.30
2019-05-06T00:17:09.735Z,44.30
2019-05-06T00:19:36.530Z,44.20
2019-05-06T00:22:04.705Z,44.30
2019-05-06T00:24:34.775Z,44.60
2019-05-06T00:27:04.733Z,44.10
2019-05-06T00:29:31.365Z,44.20
2019-05-06T00:31:58.019Z,44.10
2019-05-06T00:34:24.663Z,44.10
2019-05-06T00:36:51.199Z,44.20
2019-05-06T00:39:25.821Z,44.20
2019-05-06T00:42:00.255Z,44.20
2019-05-06T00:44:26.564Z,44.10
2019-05-06T00:46:54.589Z,44.20
2019-05-06T00:49:21.019Z,44.30
2019-05-06T00:51:47.426Z,44.30
2019-05-06T00:54:21.679Z,44.30
2019-05-06T00:56:48.072Z,44.30
2019-05-06T00:59:14.802Z,44.40
2019-05-06T01:01:43.381Z,44.40
2019-05-06T01:04:09.464Z,44.30
2019-05-06T01:06:36.111Z,44.40
2019-05-06T01:09:06.909Z,44.40
2019-05-06T01:11:35.324Z,44.40
2019-05-06T01:14:06.334Z,44.40
2019-05-06T01:16:34.476Z,44.50
2019-05-06T01:19:00.799Z,44.50
2019-05-06T01:21:27.306Z,44.60
2019-05-06T01:23:54.510Z,44.50
2019-05-06T01:26:21.437Z,44.70
2019-05-06T01:28:47.803Z,44.70
2019-05-06T01:31:14.407Z,44.70
2019-05-06T01:33:40.788Z,44.80
2019-05-06T01:36:07.199Z,44.80
2019-05-06T01:39:13.763Z,44.90
2019-05-06T01:41:41.875Z,44.70
2019-05-06T01:44:08.272Z,44.80
2019-05-06T01:46:34.998Z,44.90
2019-05-06T01:49:01.399Z,44.80
2019-05-06T01:51:27.769Z,44.90
2019-05-06T01:53:54.625Z,45.00
2019-05-06T01:56:21.370Z,45.00
2019-05-06T01:58:47.657Z,45.10
2019-05-06T02:01:14.872Z,45.10
2019-05-06T02:03:44.211Z,45.20
2019-05-06T02:06:11.275Z,45.30
2019-05-06T02:08:37.907Z,45.40
2019-05-06T02:11:04.461Z,45.50
2019-05-06T02:13:31.289Z,45.70
2019-05-06T02:15:57.930Z,45.60
2019-05-06T02:18:24.394Z,45.60
2019-05-06T02:20:53.810Z,45.50
2019-05-06T02:23:24.083Z,45.60
2019-05-06T02:25:54.009Z,45.60
2019-05-06T02:28:20.520Z,45.80
2019-05-06T02:30:57.844Z,46.10
2019-05-06T02:33:35.377Z,45.80
2019-05-06T02:36:14.682Z,45.80
2019-05-06T02:38:48.066Z,45.70
2019-05-06T02:41:08.665Z,45.70
2019-05-06T02:43:35.312Z,45.80
2019-05-06T02:46:04.213Z,45.80
2019-05-06T02:48:43.277Z,45.80
2019-05-06T02:51:13.357Z,45.80
2019-05-06T02:53:42.748Z,45.70
2019-05-06T02:56:08.316Z,45.80
2019-05-06T02:58:35.803Z,45.70
2019-05-06T03:01:03.682Z,45.80
2019-05-06T03:03:33.347Z,45.80
2019-05-06T03:05:58.961Z,45.80
2019-05-06T03:08:25.630Z,45.90
2019-05-06T03:10:53.465Z,46.00
2019-05-06T03:13:23.343Z,46.00
2019-05-06T03:15:48.442Z,46.10
2019-05-06T03:18:15.253Z,46.20
2019-05-06T03:20:54.295Z,46.40
2019-05-06T03:23:39.254Z,46.50
2019-05-06T03:26:06.527Z,46.40
2019-05-06T03:28:33.625Z,46.50
2019-05-06T03:31:06.002Z,46.60
2019-05-06T03:33:46.840Z,46.70
2019-05-06T03:36:07.152Z,46.60
2019-05-06T03:38:25.331Z,46.70
2019-05-06T03:40:53.732Z,46.80
2019-05-06T03:43:23.041Z,46.80
2019-05-06T03:46:04.265Z,46.90
2019-05-06T03:48:44.892Z,46.90
2019-05-06T03:51:13.485Z,46.90
2019-05-06T03:53:43.158Z,47.00
2019-05-06T03:56:08.576Z,47.10
2019-05-06T03:58:35.463Z,47.20
2019-05-06T04:01:03.753Z,47.20
2019-05-06T04:03:43.875Z,47.20
2019-05-06T04:05:59.418Z,47.30
2019-05-06T04:08:26.584Z,47.30
2019-05-06T04:10:53.992Z,47.40
2019-05-06T04:13:23.141Z,47.40
2019-05-06T04:15:53.796Z,47.40
2019-05-06T04:18:23.923Z,47.50
2019-05-06T04:21:09.120Z,47.50
2019-05-06T04:23:37.839Z,47.50
2019-05-06T04:26:06.803Z,47.60
2019-05-06T04:28:35.317Z,47.60
2019-05-06T04:31:02.700Z,47.60
2019-05-06T04:33:29.717Z,47.70
2019-05-06T04:35:56.182Z,47.70
2019-05-06T04:38:23.482Z,47.60
2019-05-06T04:40:53.512Z,47.70
2019-05-06T04:43:19.051Z,47.70
2019-05-06T04:45:45.323Z,47.70
2019-05-06T04:48:14.236Z,47.70
2019-05-06T04:50:44.007Z,47.80
2019-05-06T04:53:09.523Z,47.80
2019-05-06T04:55:36.106Z,47.90
2019-05-06T04:58:04.203Z,47.90
2019-05-06T05:00:37.840Z,48.00
2019-05-06T05:03:05.407Z,48.00
2019-05-06T05:05:33.273Z,48.00
2019-05-06T05:08:02.294Z,48.20
2019-05-06T05:10:35.973Z,48.10
2019-05-06T05:13:12.545Z,48.10
2019-05-06T05:15:46.998Z,48.10
2019-05-06T05:18:15.391Z,48.00
2019-05-06T05:20:46.584Z,48.10
2019-05-06T05:23:11.880Z,48.10
2019-05-06T05:25:38.699Z,48.10
2019-05-06T05:28:05.269Z,48.20
2019-05-06T05:30:32.809Z,48.20
2019-05-06T05:32:59.383Z,48.20
2019-05-06T05:35:25.755Z,48.20
2019-05-06T05:37:52.964Z,48.20
2019-05-06T05:40:19.651Z,48.20
2019-05-06T05:42:56.931Z,48.30
2019-05-06T05:45:23.307Z,48.20
2019-05-06T05:47:52.268Z,48.20
2019-05-06T05:50:22.783Z,48.30
2019-05-06T05:52:49.093Z,48.30
2019-05-06T05:55:15.594Z,48.30
2019-05-06T05:57:43.307Z,48.40
2019-05-06T06:00:10.255Z,48.40
2019-05-06T06:02:36.885Z,48.40
2019-05-06T06:05:05.369Z,48.40
2019-05-06T06:07:32.863Z,48.50
2019-05-06T06:10:19.479Z,48.30
2019-05-06T06:12:45.882Z,48.40
2019-05-06T06:15:14.962Z,48.40
2019-05-06T06:17:43.283Z,48.50
2019-05-06T06:20:29.848Z,48.50
2019-05-06T06:22:58.195Z,48.60
2019-05-06T06:25:24.883Z,48.60
2019-05-06T06:27:52.317Z,48.60
2019-05-06T06:30:22.158Z,48.70
2019-05-06T06:32:49.286Z,48.80
2019-05-06T06:35:34.396Z,48.80
2019-05-06T06:38:14.659Z,48.80
2019-05-06T06:40:42.508Z,48.80
2019-05-06T06:43:12.423Z,48.80
2019-05-06T06:45:38.839Z,48.90
2019-05-06T06:48:05.304Z,49.50
2019-05-06T06:50:32.945Z,49.00
2019-05-06T06:53:02.866Z,49.00
2019-05-06T06:55:29.290Z,48.80
2019-05-06T06:58:04.101Z,48.80
2019-05-06T07:00:38.448Z,48.70
2019-05-06T07:03:07.107Z,48.70
2019-05-06T07:05:44.662Z,48.60
2019-05-06T07:08:12.711Z,48.60
2019-05-06T07:10:43.043Z,48.70
2019-05-06T07:13:14.893Z,48.50
2019-05-06T07:15:42.624Z,48.40
2019-05-06T07:18:09.202Z,48.40
2019-05-06T07:20:37.479Z,48.30
2019-05-06T07:23:22.352Z,48.30
2019-05-06T07:25:48.818Z,48.20
2019-05-06T07:28:15.122Z,48.10
2019-05-06T07:30:41.963Z,48.40
2019-05-06T07:33:08.479Z,48.00
2019-05-06T07:35:40.205Z,47.90
2019-05-06T07:38:03.191Z,48.00
2019-05-06T07:40:29.797Z,48.00
2019-05-06T07:42:58.378Z,48.40
2019-05-06T07:45:26.659Z,47.80
2019-05-06T07:47:54.902Z,47.80
2019-05-06T07:50:22.365Z,47.70
2019-05-06T07:53:07.454Z,47.70
2019-05-06T07:55:35.478Z,47.50
2019-05-06T07:58:03.010Z,47.50
2019-05-06T08:00:32.698Z,47.60
2019-05-06T08:02:59.037Z,47.30
2019-05-06T08:05:25.666Z,47.20
2019-05-06T08:07:55.041Z,46.90
2019-05-06T08:10:22.017Z,46.80
2019-05-06T08:12:48.419Z,46.70
2019-05-06T08:15:15.115Z,46.80
2019-05-06T08:17:42.305Z,46.60
2019-05-06T08:20:09.496Z,46.30
2019-05-06T08:22:37.795Z,46.30
2019-05-06T08:25:04.384Z,46.10
2019-05-06T08:27:32.873Z,45.80
2019-05-06T08:29:59.515Z,45.60
2019-05-06T08:32:26.563Z,45.30
2019-05-06T08:34:53.151Z,45.20
2019-05-06T08:37:22.766Z,45.00
2019-05-06T08:39:49.439Z,44.80
2019-05-06T08:42:15.701Z,44.70
2019-05-06T08:44:42.726Z,44.60
2019-05-06T08:47:09.571Z,44.40
2019-05-06T08:49:49.274Z,44.20
2019-05-06T08:52:16.679Z,43.70
2019-05-06T08:54:44.918Z,43.60
2019-05-06T08:57:11.909Z,43.50
2019-05-06T08:59:38.402Z,43.40
2019-05-06T09:02:05.393Z,42.90
2019-05-06T09:04:32.220Z,43.20
2019-05-06T09:06:59.802Z,43.40
2019-05-06T09:09:27.310Z,43.60
2019-05-06T09:11:53.975Z,43.80
2019-05-06T09:14:22.931Z,43.80
2019-05-06T09:16:51.381Z,43.70
2019-05-06T09:19:17.698Z,43.50
2019-05-06T09:21:46.334Z,43.60
2019-05-06T09:24:12.782Z,43.50
2019-05-06T09:26:43.135Z,43.60
2019-05-06T09:29:12.841Z,43.00
2019-05-06T09:31:42.742Z,42.80
2019-05-06T09:34:23.431Z,42.60
2019-05-06T09:37:08.157Z,42.50
2019-05-06T09:39:34.770Z,42.50
2019-05-06T09:42:02.217Z,42.30
2019-05-06T09:44:28.684Z,42.20
2019-05-06T09:46:55.238Z,42.10
2019-05-06T09:49:23.412Z,42.00
2019-05-06T09:51:49.806Z,42.10
2019-05-06T09:54:23.361Z,42.20
2019-05-06T09:56:53.233Z,42.30
2019-05-06T09:59:19.412Z,42.30
2019-05-06T10:01:45.707Z,42.50
2019-05-06T10:04:13.091Z,42.60
2019-05-06T10:06:55.466Z,42.60
2019-05-06T10:09:09.749Z,42.70
2019-05-06T10:11:36.522Z,42.10
2019-05-06T10:14:03.595Z,42.50
2019-05-06T10:16:32.389Z,42.40
2019-05-06T10:18:58.592Z,42.20
2019-05-06T10:21:25.183Z,41.90
2019-05-06T10:23:52.873Z,41.70
2019-05-06T10:26:19.495Z,41.60
2019-05-06T10:28:52.285Z,41.40
2019-05-06T10:31:18.903Z,41.60
2019-05-06T10:34:03.927Z,41.60
2019-05-06T10:36:37.002Z,41.80
2019-05-06T10:39:09.263Z,42.20
2019-05-06T10:41:38.835Z,42.70
2019-05-06T10:44:43.038Z,44.10
2019-05-06T10:47:09.409Z,45.50
2019-05-06T10:49:35.808Z,46.70
2019-05-06T10:52:09.744Z,46.60
2019-05-06T10:54:36.224Z,44.80
2019-05-06T10:57:22.471Z,43.60
2019-05-06T10:59:49.191Z,42.10
2019-05-06T11:02:35.634Z,41.60
2019-05-06T11:05:03.540Z,41.00
2019-05-06T11:07:34.521Z,40.30
2019-05-06T11:09:58.415Z,39.50
2019-05-06T11:12:25.119Z,39.50
2019-05-06T11:14:53.199Z,39.00
2019-05-06T11:17:20.068Z,39.50
2019-05-06T11:19:46.618Z,39.90
2019-05-06T11:22:12.993Z,40.80
2019-05-06T11:24:39.356Z,40.20
2019-05-06T11:27:07.309Z,39.10
2019-05-06T11:29:38.287Z,38.20
2019-05-06T11:32:06.931Z,37.40
2019-05-06T11:34:42.105Z,37.00
2019-05-06T11:37:19.355Z,37.50
2019-05-06T11:39:45.826Z,38.70
2019-05-06T11:42:24.933Z,39.90
2019-05-06T11:44:40.291Z,39.10
2019-05-06T11:47:07.030Z,38.40
2019-05-06T11:49:33.406Z,37.20
2019-05-06T11:52:02.194Z,36.40
2019-05-06T11:54:29.435Z,35.20
2019-05-06T11:56:58.346Z,35.60
2019-05-06T11:59:24.448Z,36.40
2019-05-06T12:01:53.376Z,36.80
2019-05-06T12:04:22.308Z,36.30
2019-05-06T12:06:48.540Z,37.20
2019-05-06T12:09:17.094Z,36.90
2019-05-06T12:11:43.435Z,35.90
2019-05-06T12:14:12.377Z,35.30
2019-05-06T12:16:38.809Z,35.00
2019-05-06T12:19:05.400Z,34.80
2019-05-06T12:21:32.986Z,34.90
2019-05-06T12:23:59.915Z,34.80
2019-05-06T12:26:26.451Z,34.80
2019-05-06T12:28:53.326Z,34.50
2019-05-06T12:31:20.186Z,34.70
2019-05-06T12:33:48.367Z,35.30
2019-05-06T12:36:19.673Z,35.30
2019-05-06T12:39:06.571Z,35.50
2019-05-06T12:41:35.285Z,35.60
2019-05-06T12:44:03.264Z,35.70
2019-05-06T12:46:33.217Z,35.90
2019-05-06T12:48:59.750Z,35.90
2019-05-06T12:51:26.151Z,36.60
2019-05-06T12:53:53.032Z,36.90
2019-05-06T12:56:21.047Z,37.00
2019-05-06T12:58:47.776Z,36.90
2019-05-06T13:01:16.303Z,36.70
2019-05-06T13:03:43.365Z,36.50
2019-05-06T13:06:12.727Z,36.50
2019-05-06T13:08:54.111Z,36.40
2019-05-06T13:11:29.391Z,36.40
2019-05-06T13:14:00.432Z,36.10
2019-05-06T13:16:24.145Z,35.90
2019-05-06T13:18:52.534Z,35.40
2019-05-06T13:21:18.956Z,35.80
2019-05-06T13:23:50.136Z,36.00
2019-05-06T13:26:16.943Z,36.70
2019-05-06T13:28:45.239Z,36.30
2019-05-06T13:31:20.422Z,36.40
2019-05-06T13:33:54.050Z,36.50
2019-05-06T13:36:22.591Z,36.60
2019-05-06T13:38:48.975Z,36.80
2019-05-06T13:41:15.735Z,36.80
2019-05-06T13:43:54.117Z,37.10
2019-05-06T13:46:23.460Z,37.10
2019-05-06T13:48:57.479Z,37.30
2019-05-06T13:51:28.110Z,37.40
2019-05-06T13:53:54.506Z,37.50
2019-05-06T13:56:20.879Z,37.60
2019-05-06T13:58:47.360Z,37.50
2019-05-06T14:01:15.961Z,37.30
2019-05-06T14:03:42.972Z,37.20
2019-05-06T14:06:09.527Z,37.20
2019-05-06T14:08:35.900Z,36.80
2019-05-06T14:11:03.056Z,37.20
2019-05-06T14:13:29.466Z,37.30
2019-05-06T14:15:55.779Z,37.30
2019-05-06T14:18:22.547Z,37.30
2019-05-06T14:20:49.057Z,37.50
2019-05-06T14:23:15.794Z,37.80
2019-05-06T14:25:44.016Z,37.70
2019-05-06T14:28:28.827Z,37.80
2019-05-06T14:30:57.028Z,37.70
2019-05-06T14:33:23.813Z,37.70
2019-05-06T14:35:52.466Z,37.60
2019-05-06T14:38:38.573Z,37.60
2019-05-06T14:41:08.042Z,37.60
2019-05-06T14:43:35.190Z,37.60
2019-05-06T14:46:02.083Z,37.70
2019-05-06T14:48:28.455Z,37.60
2019-05-06T14:50:57.212Z,37.60
2019-05-06T14:53:23.942Z,37.50
2019-05-06T14:55:52.318Z,37.50
2019-05-06T14:58:19.015Z,37.90
2019-05-06T15:00:45.391Z,38.00
2019-05-06T15:03:12.925Z,37.50
2019-05-06T15:05:42.754Z,37.60
2019-05-06T15:08:09.359Z,37.60
2019-05-06T15:10:36.814Z,37.40
2019-05-06T15:13:03.140Z,37.50
2019-05-06T15:15:29.411Z,37.50
2019-05-06T15:17:55.847Z,37.40
2019-05-06T15:20:22.705Z,37.30
2019-05-06T15:22:49.227Z,37.30
2019-05-06T15:25:15.590Z,37.30
2019-05-06T15:27:42.682Z,37.30
2019-05-06T15:30:26.446Z,37.20
2019-05-06T15:32:53.014Z,37.20
2019-05-06T15:35:30.274Z,37.30
2019-05-06T15:37:58.462Z,37.40
2019-05-06T15:40:32.439Z,37.50
2019-05-06T15:42:53.539Z,37.40
2019-05-06T15:45:21.895Z,37.30
2019-05-06T15:47:48.259Z,37.30
2019-05-06T15:50:14.900Z,37.20
2019-05-06T15:52:43.570Z,37.30
2019-05-06T15:55:10.119Z,37.30
2019-05-06T15:57:36.519Z,37.10
2019-05-06T16:00:04.946Z,37.00
2019-05-06T16:02:33.469Z,36.80
2019-05-06T16:04:59.648Z,35.80
2019-05-06T16:07:26.338Z,36.10
2019-05-06T16:09:55.126Z,35.60
2019-05-06T16:12:22.072Z,36.10
2019-05-06T16:14:48.590Z,34.50
2019-05-06T16:17:15.148Z,35.10
2019-05-06T16:19:42.702Z,34.90
2019-05-06T16:22:09.444Z,35.10
2019-05-06T16:24:37.952Z,35.10
2019-05-06T16:27:04.574Z,35.20
2019-05-06T16:29:35.146Z,35.20
2019-05-06T16:32:02.854Z,35.30
2019-05-06T16:34:29.135Z,35.50
2019-05-06T16:36:55.687Z,35.50
2019-05-06T16:39:23.016Z,35.50
2019-05-06T16:41:49.458Z,35.50
2019-05-06T16:44:16.070Z,35.70
2019-05-06T16:46:42.765Z,35.80
2019-05-06T16:49:09.370Z,35.80
2019-05-06T16:51:36.187Z,35.90
2019-05-06T16:54:02.858Z,35.90
2019-05-06T16:56:33.248Z,36.00
2019-05-06T16:59:03.010Z,36.00
2019-05-06T17:01:29.851Z,35.90
2019-05-06T17:04:02.999Z,35.90
2019-05-06T17:06:32.684Z,36.00
2019-05-06T17:08:59.147Z,35.90
2019-05-06T17:11:30.315Z,36.00
2019-05-06T17:13:54.184Z,35.80
2019-05-06T17:16:22.090Z,36.00
2019-05-06T17:18:48.758Z,36.10
2019-05-06T17:21:15.158Z,36.20
2019-05-06T17:23:42.972Z,36.40
2019-05-06T17:26:09.907Z,36.40
2019-05-06T17:28:43.902Z,36.40
2019-05-06T17:31:29.055Z,36.40
2019-05-06T17:34:06.235Z,36.50
2019-05-06T17:36:34.858Z,36.60
2019-05-06T17:39:02.657Z,36.70
2019-05-06T17:41:42.373Z,36.90
2019-05-06T17:43:57.871Z,37.20
2019-05-06T17:46:43.644Z,37.30
2019-05-06T17:49:12.889Z,37.30
2019-05-06T17:51:42.548Z,37.30
2019-05-06T17:54:09.109Z,37.60
2019-05-06T17:56:35.389Z,37.70
2019-05-06T17:59:03.197Z,37.90
2019-05-06T18:01:34.842Z,38.10
2019-05-06T18:04:02.210Z,38.20
2019-05-06T18:06:29.103Z,38.40
2019-05-06T18:08:55.477Z,38.50
2019-05-06T18:11:22.451Z,38.80
2019-05-06T18:13:49.104Z,38.90
2019-05-06T18:16:15.593Z,39.00
2019-05-06T18:18:41.866Z,39.10
2019-05-06T18:21:08.551Z,39.40
2019-05-06T18:23:34.907Z,39.50
2019-05-06T18:26:03.154Z,39.60
2019-05-06T18:28:29.611Z,40.00
2019-05-06T18:30:57.468Z,40.10
2019-05-06T18:33:23.754Z,40.30
2019-05-06T18:35:50.374Z,40.40
2019-05-06T18:38:16.679Z,40.60
2019-05-06T18:40:43.203Z,40.90
2019-05-06T18:43:09.507Z,41.30
2019-05-06T18:45:36.163Z,41.20
2019-05-06T18:48:02.911Z,41.40
2019-05-06T18:50:29.647Z,41.20
2019-05-06T18:52:56.051Z,41.50
2019-05-06T18:55:23.660Z,41.40
2019-05-06T18:57:52.637Z,41.60
2019-05-06T19:00:18.633Z,41.50
2019-05-06T19:02:45.219Z,42.10
2019-05-06T19:05:16.443Z,41.70
2019-05-06T19:07:43.454Z,42.10
2019-05-06T19:10:13.435Z,42.00
2019-05-06T19:12:41.578Z,42.10
2019-05-06T19:15:08.935Z,42.20
2019-05-06T19:17:35.680Z,42.40
2019-05-06T19:20:03.654Z,42.60
2019-05-06T19:22:32.292Z,42.90
2019-05-06T19:24:58.582Z,42.90
2019-05-06T19:27:25.084Z,43.20
2019-05-06T19:29:54.556Z,43.30
2019-05-06T19:32:22.518Z,43.40
2019-05-06T19:34:49.158Z,43.40
2019-05-06T19:37:15.447Z,43.60
2019-05-06T19:39:43.045Z,43.60
2019-05-06T19:42:09.833Z,43.60
2019-05-06T19:44:36.474Z,43.70
2019-05-06T19:47:22.613Z,43.80
2019-05-06T19:49:49.624Z,43.80
2019-05-06T19:52:16.095Z,43.50
2019-05-06T19:54:42.566Z,44.00
2019-05-06T19:57:11.929Z,44.60
2019-05-06T19:59:38.219Z,44.40
2019-05-06T20:02:05.259Z,43.90
2019-05-06T20:04:33.307Z,44.90
2019-05-06T20:07:18.756Z,44.40
2019-05-06T20:09:53.053Z,44.70
2019-05-06T20:12:24.247Z,45.40
2019-05-06T20:14:52.374Z,45.50
2019-05-06T20:17:18.811Z,45.10
2019-05-06T20:19:45.079Z,44.70
2019-05-06T20:22:13.009Z,44.70
2019-05-06T20:24:39.447Z,44.90
2019-05-06T20:27:05.747Z,44.50
2019-05-06T20:29:33.014Z,44.50
2019-05-06T20:32:00.348Z,44.70
2019-05-06T20:34:26.606Z,44.70
2019-05-06T20:36:53.049Z,45.00
2019-05-06T20:39:19.919Z,44.60
2019-05-06T20:41:46.318Z,44.60
2019-05-06T20:44:12.588Z,44.60
2019-05-06T20:46:39.159Z,44.70
2019-05-06T20:49:05.546Z,44.90
2019-05-06T20:51:32.838Z,45.00
2019-05-06T20:53:59.790Z,45.40
2019-05-06T20:56:26.260Z,45.70
2019-05-06T20:58:52.982Z,45.40
2019-05-06T21:01:21.764Z,45.40
2019-05-06T21:03:47.822Z,45.40
2019-05-06T21:06:14.427Z,45.40
2019-05-06T21:08:42.161Z,45.60
2019-05-06T21:11:22.605Z,45.60
2019-05-06T21:13:37.242Z,45.70
2019-05-06T21:16:03.512Z,45.80
2019-05-06T21:18:32.323Z,46.00
2019-05-06T21:20:58.760Z,46.00
2019-05-06T21:23:25.155Z,46.10
2019-05-06T21:25:52.346Z,46.20
2019-05-06T21:28:19.300Z,46.00
2019-05-06T21:30:46.663Z,46.00
2019-05-06T21:33:12.970Z,46.20
2019-05-06T21:35:42.362Z,46.10
2019-05-06T21:38:09.012Z,46.00
2019-05-06T21:40:35.382Z,46.10
2019-05-06T21:43:02.418Z,46.10
2019-05-06T21:45:29.226Z,46.10
2019-05-06T21:47:55.551Z,46.20
2019-05-06T21:50:22.775Z,46.20
2019-05-06T21:52:49.655Z,46.30
2019-05-06T21:55:16.459Z,46.30
2019-05-06T21:57:42.723Z,46.40
2019-05-06T22:00:16.645Z,46.50
2019-05-06T22:02:42.938Z,46.60
2019-05-06T22:05:09.787Z,46.40
2019-05-06T22:07:36.958Z,46.50
2019-05-06T22:10:05.150Z,46.50
2019-05-06T22:12:32.195Z,46.60
2019-05-06T22:14:58.699Z,46.70
2019-05-06T22:17:24.967Z,46.70
2019-05-06T22:19:52.414Z,46.90
2019-05-06T22:22:23.313Z,46.90
2019-05-06T22:24:55.255Z,46.90
2019-05-06T22:27:18.521Z,47.00
2019-05-06T22:29:45.573Z,47.10
2019-05-06T22:32:14.821Z,47.20
2019-05-06T22:34:42.514Z,47.10
2019-05-06T22:37:08.847Z,47.10
2019-05-06T22:39:35.365Z,47.30
2019-05-06T22:42:01.843Z,47.30
2019-05-06T22:44:28.210Z,47.40
2019-05-06T22:46:54.499Z,47.50
2019-05-06T22:49:22.584Z,47.50
2019-05-06T22:51:48.959Z,47.50
2019-05-06T22:54:15.583Z,47.60
2019-05-06T22:56:41.875Z,47.60
2019-05-06T22:59:08.242Z,47.70
2019-05-06T23:01:36.556Z,47.80
2019-05-06T23:04:04.032Z,47.90
2019-05-06T23:06:32.730Z,48.30
2019-05-06T23:08:58.699Z,47.90
2019-05-06T23:11:25.006Z,48.00
2019-05-06T23:13:52.996Z,47.90
2019-05-06T23:16:19.934Z,48.00
2019-05-06T23:18:46.207Z,48.00
2019-05-06T23:21:14.679Z,48.00
2019-05-06T23:23:40.771Z,48.10
2019-05-06T23:26:17.443Z,48.10
2019-05-06T23:28:43.847Z,48.10
2019-05-06T23:31:10.298Z,48.20
2019-05-06T23:33:36.584Z,48.30
2019-05-06T23:36:03.164Z,48.20
2019-05-06T23:39:07.439Z,48.30
2019-05-06T23:42:12.115Z,48.20
2019-05-06T23:45:16.095Z,48.20
2019-05-06T23:48:20.358Z,48.20
2019-05-06T23:51:25.498Z,48.30
2019-05-06T23:54:29.363Z,48.40
2019-05-06T23:56:55.467Z,48.50
2019-05-06T23:59:22.557Z,48.60
